CheckWX is a tool to help pilots better visualize weather data.  It is not intended as a substitute for an official pre-flight weather briefing.

19:23:31 UTC

KRDM TAF
Roberts Field Airport
Redmond, Oregon, USA
KRDM 272320Z 2800/2824 35011KT P6SM FEW250 FM280500 VRB03KT P6SM BKN250 FM281800 36008KT P6SM OVC250

May-28@
00:00 UTC

May-28 @ 00:00 UTC

May-28@
05:00 UTC

May-28 @ 05:00 UTC

TAF KRDM 272320Z 2800/2824 35011KT P6SM FEW250

Expired

Wind
  • 350° at 11 KTS
Cloud Levels
  • Few at 25,000' AGL

May-28@
05:00 UTC

May-28 @ 05:00 UTC

May-28@
18:00 UTC

May-28 @ 18:00 UTC

FM280500 VRB03KT P6SM BKN250

Expired

Wind
  • Variable at 3 KTS
Cloud Levels
  • Broken at 25,000' AGL

May-28@
18:00 UTC

May-28 @ 18:00 UTC

May-29@
00:00 UTC

May-29 @ 00:00 UTC

FM281800 36008KT P6SM OVC250

From

From Standard forecast or significant change

Wind
  • 360° at 8 KTS
Cloud Levels
  • Overcast at 25,000' AGL